Time;durP1;ratioP1;P1;durP2;ratioP2;P2;SDS_P1;SDS_P2;PMS_P1;PMS_P2;Temp;Humidity;BMP_temperature;BMP_pressure;BME280_temperature;BME280_humidity;BME280_pressure;Samples;Min_cycle;Max_cycle;Signal;HPM_P1;HPM_P2
2022/10/24 00:08:13;;;;;;;11.38;4.20;;;;;;;13.92;100.00;99871.34;20502862;28;20054;-70
2022/10/24 00:18:14;;;;;;;12.65;4.10;;;;;;;13.74;100.00;99857.09;20505537;29;20644;-70
2022/10/24 00:28:16;;;;;;;13.63;4.65;;;;;;;13.69;100.00;99853.78;20502809;28;20419;-70
2022/10/24 00:38:17;;;;;;;12.98;4.68;;;;;;;13.57;100.00;99861.22;20510159;28;20548;-70
2022/10/24 00:48:19;;;;;;;14.25;4.78;;;;;;;13.46;100.00;99859.88;20581440;28;20062;-70
2022/10/24 00:58:20;;;;;;;12.80;4.68;;;;;;;13.34;100.00;99858.56;20581179;28;20082;-70
2022/10/24 01:08:22;;;;;;;15.15;5.75;;;;;;;13.19;100.00;99865.19;20580052;28;20059;-71
2022/10/24 01:18:23;;;;;;;12.95;5.28;;;;;;;13.13;100.00;99860.16;20579674;28;20062;-71
2022/10/24 01:28:24;;;;;;;12.52;4.18;;;;;;;13.01;100.00;99853.53;20578135;28;20073;-70
2022/10/24 01:38:26;;;;;;;12.52;4.85;;;;;;;12.93;100.00;99829.28;20568100;28;20432;-70
2022/10/24 01:48:27;;;;;;;16.85;5.28;;;;;;;12.91;100.00;99849.50;20497843;29;20059;-70
2022/10/24 01:58:29;;;;;;;15.52;5.72;;;;;;;12.89;100.00;99835.59;20495797;29;20479;-70
2022/10/24 02:08:30;;;;;;;11.98;4.75;;;;;;;12.86;100.00;99835.66;20494657;28;20122;-70
2022/10/24 02:18:31;;;;;;;9.40;4.57;;;;;;;12.82;100.00;99837.53;20495336;29;20062;-70
2022/10/24 02:28:32;;;;;;;19.10;5.20;;;;;;;12.83;100.00;99835.75;20521661;28;20047;-69
2022/10/24 02:38:34;;;;;;;9.32;4.45;;;;;;;12.82;100.00;99829.66;20574114;28;20058;-70
2022/10/24 02:48:35;;;;;;;14.60;5.15;;;;;;;12.85;100.00;99823.47;20573903;28;20106;-70
2022/10/24 02:58:37;;;;;;;12.93;4.07;;;;;;;12.79;100.00;99821.00;20572586;28;20467;-70
2022/10/24 03:08:38;;;;;;;21.13;7.43;;;;;;;12.76;100.00;99813.25;20573522;28;20059;-70
2022/10/24 03:18:39;;;;;;;10.38;5.00;;;;;;;12.78;100.00;99827.19;20573227;28;20095;-70
2022/10/24 03:28:41;;;;;;;13.07;5.45;;;;;;;12.81;100.00;99858.63;20587203;28;20081;-70
2022/10/24 03:38:42;;;;;;;10.70;4.63;;;;;;;12.88;100.00;99877.66;20576118;28;20059;-70
2022/10/24 03:48:43;;;;;;;15.52;4.20;;;;;;;12.97;100.00;99862.44;20506786;29;20059;-70
2022/10/24 03:58:45;;;;;;;15.38;4.68;;;;;;;12.96;100.00;99857.25;20504406;29;20066;-70
2022/10/24 04:08:46;;;;;;;16.95;4.68;;;;;;;12.99;100.00;99865.88;20504593;29;20051;-70
2022/10/24 04:18:47;;;;;;;16.70;5.32;;;;;;;12.97;100.00;99851.91;20504907;29;20130;-70
2022/10/24 04:28:49;;;;;;;10.90;4.32;;;;;;;12.98;100.00;99860.66;20503013;29;20106;-69
2022/10/24 04:38:51;;;;;;;14.38;5.30;;;;;;;13.09;100.00;99862.03;20514125;28;20059;-69
2022/10/24 04:48:52;;;;;;;14.85;5.60;;;;;;;13.12;100.00;99840.00;20581558;28;20057;-69
2022/10/24 04:58:53;;;;;;;15.50;6.63;;;;;;;13.15;100.00;99865.34;20579797;28;20120;-70
2022/10/24 05:08:55;;;;;;;14.57;5.00;;;;;;;13.16;100.00;99882.84;20579664;28;20503;-70
2022/10/24 05:18:56;;;;;;;11.02;4.88;;;;;;;13.14;100.00;99892.56;20580103;28;20051;-69
2022/10/24 05:28:57;;;;;;;14.73;5.25;;;;;;;13.18;100.00;99899.44;20578473;28;20101;-70
2022/10/24 05:38:59;;;;;;;15.80;5.00;;;;;;;13.24;100.00;99915.00;20521598;28;20070;-71
2022/10/24 05:49:00;;;;;;;13.60;5.38;;;;;;;13.39;100.00;99897.84;20576222;28;20050;-71
2022/10/24 05:59:02;;;;;;;22.65;4.88;;;;;;;13.54;100.00;99895.53;20576919;28;20054;-76
2022/10/24 06:09:03;;;;;;;16.77;4.88;;;;;;;13.82;100.00;99923.47;20591693;28;20054;-77
2022/10/24 06:19:05;;;;;;;16.98;5.72;;;;;;;13.82;100.00;99929.59;20568468;28;20106;-76
2022/10/24 06:29:06;;;;;;;18.10;5.00;;;;;;;14.02;100.00;99936.75;20512198;28;20046;-76
2022/10/24 06:39:08;;;;;;;21.20;4.75;;;;;;;14.09;100.00;99961.09;20480649;28;20047;-77
2022/10/24 06:49:09;;;;;;;19.15;4.57;;;;;;;14.31;100.00;99958.47;20498618;28;20408;-77
2022/10/24 06:59:10;;;;;;;14.93;4.60;;;;;;;14.43;100.00;99973.84;20490631;28;20077;-77
2022/10/24 07:09:24;;;;;;;14.73;4.88;;;;;;;14.47;100.00;99967.53;20515428;28;20062;-76
2022/10/24 07:19:25;;;;;;;15.60;3.90;;;;;;;14.48;100.00;99977.19;20530542;28;20105;-76
2022/10/24 07:29:27;;;;;;;13.15;4.72;;;;;;;14.55;100.00;99968.09;20523562;28;20047;-76
2022/10/24 07:39:28;;;;;;;9.98;4.03;;;;;;;14.80;100.00;99985.59;20513063;28;20098;-76
2022/10/24 07:49:30;;;;;;;10.95;3.60;;;;;;;15.06;100.00;99980.13;20520656;29;20094;-76
2022/10/24 07:59:33;;;;;;;14.70;5.38;;;;;;;15.27;100.00;99977.53;20522745;29;20071;-76
2022/10/24 08:09:42;;;;;;;7.88;3.17;;;;;;;15.43;100.00;99973.34;20519594;28;20055;-77
2022/10/24 08:19:44;;;;;;;8.73;3.33;;;;;;;15.49;100.00;99986.25;20522869;28;20078;-76
2022/10/24 08:29:45;;;;;;;12.05;3.15;;;;;;;15.53;100.00;99973.81;20523418;29;20055;-77
2022/10/24 08:39:47;;;;;;;11.13;3.08;;;;;;;15.62;100.00;99979.53;20539850;28;20055;-77
2022/10/24 08:49:48;;;;;;;11.55;4.10;;;;;;;15.85;100.00;99981.19;20586196;28;20065;-77
2022/10/24 08:59:50;;;;;;;7.90;3.20;;;;;;;15.96;100.00;99969.31;20604430;28;20133;-77
2022/10/24 09:09:52;;;;;;;11.18;4.28;;;;;;;15.92;100.00;99999.41;20598887;28;20070;-76
2022/10/24 09:19:59;;;;;;;10.70;3.55;;;;;;;15.84;100.00;100002.38;20591850;28;20070;-76
2022/10/24 09:30:28;;;;;;;10.75;3.53;;;;;;;15.89;100.00;100018.88;20609528;28;20047;-77
2022/10/24 09:40:33;;;;;;;10.15;2.67;;;;;;;16.08;100.00;100018.94;20573320;28;20071;-77
2022/10/24 09:50:43;;;;;;;10.00;2.95;;;;;;;16.28;100.00;100036.53;20484714;29;20058;-77
2022/10/24 10:00:59;;;;;;;9.20;2.83;;;;;;;16.35;100.00;100053.81;20502399;29;20039;-78
2022/10/24 10:11:01;;;;;;;12.27;2.80;;;;;;;16.50;100.00;100047.00;20502095;29;20051;-79
2022/10/24 10:21:02;;;;;;;8.60;2.90;;;;;;;16.77;100.00;100039.56;20498243;29;20047;-79
2022/10/24 10:31:04;;;;;;;11.50;3.33;;;;;;;16.79;100.00;100043.88;20507984;28;20058;-80
2022/10/24 10:41:05;;;;;;;14.18;4.40;;;;;;;16.93;100.00;100049.38;20556474;28;20050;-80
2022/10/24 10:51:07;;;;;;;8.38;2.50;;;;;;;17.35;100.00;100066.75;20586772;28;20051;-78
2022/10/24 11:01:08;;;;;;;10.23;3.15;;;;;;;17.72;100.00;100072.84;20605496;28;20054;-81
2022/10/24 11:11:10;;;;;;;9.98;2.50;;;;;;;17.61;100.00;100064.59;20605013;28;20051;-81
2022/10/24 11:21:11;;;;;;;11.82;3.33;;;;;;;18.13;100.00;100070.78;20603787;28;20070;-78
2022/10/24 11:31:13;;;;;;;12.20;3.03;;;;;;;18.69;100.00;100061.63;20603951;28;20043;-80
2022/10/24 11:41:14;;;;;;;10.70;3.58;;;;;;;18.60;100.00;100046.19;20557616;28;20106;-79
2022/10/24 11:51:16;;;;;;;12.60;3.03;;;;;;;18.86;100.00;100026.19;20510956;28;20118;-82
2022/10/24 12:01:17;;;;;;;11.05;2.60;;;;;;;18.92;100.00;100014.38;20510408;28;20047;-80
2022/10/24 12:11:19;;;;;;;10.80;2.78;;;;;;;18.77;100.00;100009.94;20511967;28;20055;-79
2022/10/24 12:21:20;;;;;;;11.50;2.85;;;;;;;19.02;100.00;99989.06;20511160;28;20133;-78
2022/10/24 12:31:26;;;;;;;10.43;2.97;;;;;;;19.14;100.00;99991.00;20509457;28;20055;-80
2022/10/24 12:41:28;;;;;;;11.15;2.90;;;;;;;19.06;100.00;99990.59;20543828;28;20047;-82
2022/10/24 12:51:29;;;;;;;8.88;2.42;;;;;;;19.77;100.00;99991.78;20588740;28;20405;-80
2022/10/24 13:01:34;;;;;;;15.35;2.47;;;;;;;19.82;100.00;99979.06;20586422;28;20110;-79
2022/10/24 13:11:35;;;;;;;9.90;2.47;;;;;;;19.86;100.00;99977.94;20585322;28;20681;-79
2022/10/24 13:21:37;;;;;;;12.88;2.53;;;;;;;19.98;100.00;99958.63;20583683;28;20051;-79
2022/10/24 13:31:41;;;;;;;8.45;2.00;;;;;;;19.77;100.00;99967.88;20585287;28;20042;-78
2022/10/24 13:41:43;;;;;;;10.43;2.45;;;;;;;20.00;100.00;99975.31;20549728;28;20488;-81
2022/10/24 13:51:44;;;;;;;8.85;2.60;;;;;;;19.96;100.00;99987.06;20490336;29;20047;-81
2022/10/24 14:01:46;;;;;;;8.65;2.78;;;;;;;19.46;100.00;99983.81;20506535;29;20058;-79
2022/10/24 14:11:47;;;;;;;10.18;3.00;;;;;;;19.13;100.00;99988.44;20502649;28;20401;-81
2022/10/24 14:21:49;;;;;;;8.85;2.80;;;;;;;19.26;100.00;99997.41;20504268;29;20492;-79
2022/10/24 14:31:50;;;;;;;8.98;2.40;;;;;;;19.13;100.00;99999.06;20501893;29;20047;-78
2022/10/24 14:41:52;;;;;;;12.35;2.85;;;;;;;19.19;100.00;99999.56;20539927;28;20404;-79
2022/10/24 14:51:53;;;;;;;10.50;2.95;;;;;;;19.39;100.00;100010.81;20584513;28;20074;-79
2022/10/24 15:01:55;;;;;;;10.05;2.50;;;;;;;18.98;100.00;100003.44;20583335;28;20054;-80
2022/10/24 15:11:57;;;;;;;7.55;2.03;;;;;;;19.06;100.00;100009.16;20583257;28;20109;-78
2022/10/24 15:21:58;;;;;;;7.07;2.25;;;;;;;18.97;100.00;100009.69;20597948;28;20070;-81
2022/10/24 15:32:00;;;;;;;9.20;2.40;;;;;;;18.64;100.00;100010.63;20583355;28;20051;-78
2022/10/24 15:42:01;;;;;;;12.00;2.92;;;;;;;18.12;100.00;100018.72;20562202;28;20108;-79
2022/10/24 15:52:03;;;;;;;9.30;2.83;;;;;;;17.86;100.00;100027.16;20516447;29;20516;-80
2022/10/24 16:02:04;;;;;;;8.38;2.53;;;;;;;17.65;100.00;100045.84;20510599;29;20415;-78
2022/10/24 16:12:06;;;;;;;9.57;2.45;;;;;;;17.50;100.00;100056.34;20506496;28;20142;-78
2022/10/24 16:22:07;;;;;;;8.57;2.40;;;;;;;17.30;100.00;100060.84;20505792;28;20408;-81
2022/10/24 16:32:09;;;;;;;10.77;2.63;;;;;;;17.18;100.00;100045.53;20506285;28;20473;-79
2022/10/24 16:42:11;;;;;;;9.90;2.45;;;;;;;17.24;100.00;100076.13;20541517;28;20079;-79
2022/10/24 16:52:12;;;;;;;8.38;2.63;;;;;;;17.04;100.00;100054.16;20575729;28;20051;-76
2022/10/24 17:02:14;;;;;;;9.27;2.35;;;;;;;16.53;100.00;100071.50;20573088;28;20054;-75
2022/10/24 17:12:15;;;;;;;7.88;2.50;;;;;;;16.35;100.00;100093.47;20539655;28;20494;-78
2022/10/24 17:22:17;;;;;;;9.25;2.50;;;;;;;16.30;100.00;100085.75;20492247;28;20551;-76
2022/10/24 17:32:18;;;;;;;8.52;2.60;;;;;;;15.94;100.00;100130.44;20492647;28;20528;-80
2022/10/24 17:42:20;;;;;;;9.23;2.53;;;;;;;15.83;100.00;100140.59;20501213;28;20059;-79
2022/10/24 17:52:21;;;;;;;13.05;2.83;;;;;;;15.64;100.00;100158.97;20487938;28;20126;-78
2022/10/24 18:02:22;;;;;;;5.53;1.67;;;;;;;15.45;100.00;100177.28;20490163;28;20109;-76
2022/10/24 18:12:24;;;;;;;10.25;2.15;;;;;;;15.36;100.00;100196.09;20489497;28;20146;-79
2022/10/24 18:22:25;;;;;;;4.25;1.30;;;;;;;15.07;100.00;100200.69;20489859;28;20464;-77
2022/10/24 18:32:26;;;;;;;5.75;1.90;;;;;;;14.68;100.00;100215.34;20489025;28;20054;-77
2022/10/24 18:42:28;;;;;;;4.50;1.20;;;;;;;14.37;100.00;100221.63;20530853;28;20051;-82
2022/10/24 18:52:29;;;;;;;6.28;1.30;;;;;;;14.08;100.00;100220.88;20575482;28;20055;-77
2022/10/24 19:02:31;;;;;;;3.83;1.52;;;;;;;13.94;100.00;100232.72;20584704;28;20427;-78
2022/10/24 19:12:32;;;;;;;4.45;1.63;;;;;;;13.83;100.00;100219.91;20559927;28;20051;-77
2022/10/24 19:22:34;;;;;;;5.32;1.10;;;;;;;13.93;100.00;100239.75;20500572;28;20051;-79
2022/10/24 19:32:35;;;;;;;3.15;1.02;;;;;;;13.98;100.00;100243.09;20502405;28;20070;-77
2022/10/24 19:42:36;;;;;;;2.35;0.70;;;;;;;14.00;100.00;100250.97;20538743;28;20042;-80
2022/10/24 19:52:38;;;;;;;2.47;0.90;;;;;;;14.02;100.00;100239.47;20580091;28;20102;-77
2022/10/24 20:02:40;;;;;;;2.92;1.08;;;;;;;13.84;100.00;100255.84;20580533;28;20094;-78
2022/10/24 20:12:42;;;;;;;3.50;1.08;;;;;;;13.74;100.00;100272.84;20554369;28;20059;-77
2022/10/24 20:22:43;;;;;;;4.30;1.00;;;;;;;13.56;100.00;100290.91;20498977;28;20050;-77
2022/10/24 20:32:45;;;;;;;4.20;1.27;;;;;;;13.49;100.00;100294.63;20498648;28;20402;-77
2022/10/24 20:42:48;;;;;;;3.50;1.13;;;;;;;13.28;100.00;100293.47;20518839;29;20074;-78
2022/10/24 20:52:49;;;;;;;7.80;1.50;;;;;;;13.16;100.00;100312.19;20505474;29;20058;-77
2022/10/24 21:02:51;;;;;;;3.90;1.35;;;;;;;13.01;100.00;100323.97;20494893;29;20102;-77
2022/10/24 21:12:52;;;;;;;3.60;1.20;;;;;;;12.94;100.00;100342.59;20502849;28;20051;-77
2022/10/24 21:22:54;;;;;;;3.58;1.10;;;;;;;12.96;100.00;100349.53;20495825;28;20555;-76
2022/10/24 21:32:56;;;;;;;3.50;1.42;;;;;;;12.91;100.00;100358.44;20502136;28;20114;-77
2022/10/24 21:42:57;;;;;;;7.10;1.20;;;;;;;12.80;100.00;100369.22;20537182;28;20046;-77
2022/10/24 21:52:58;;;;;;;5.18;1.02;;;;;;;12.68;100.00;100374.78;20569725;28;20046;-76
2022/10/24 22:03:00;;;;;;;1.77;0.95;;;;;;;12.66;100.00;100373.97;20542717;28;20055;-74
2022/10/24 22:13:01;;;;;;;8.90;2.20;;;;;;;12.62;100.00;100381.06;20497115;28;20114;-76
2022/10/24 22:23:03;;;;;;;3.33;0.98;;;;;;;12.52;100.00;100393.53;20498944;28;20058;-76
2022/10/24 22:33:05;;;;;;;3.33;0.77;;;;;;;12.41;100.00;100400.81;20495123;28;20191;-75
2022/10/24 22:43:06;;;;;;;5.10;1.20;;;;;;;12.31;100.00;100405.41;20542365;28;20142;-76
2022/10/24 22:53:08;;;;;;;4.03;1.60;;;;;;;12.16;100.00;100411.00;20575226;28;20082;-77
2022/10/24 23:03:09;;;;;;;4.07;1.08;;;;;;;12.11;100.00;100422.50;20579115;28;20514;-77
2022/10/24 23:13:11;;;;;;;12.25;1.35;;;;;;;11.96;100.00;100432.41;20575132;28;20046;-75
2022/10/24 23:23:12;;;;;;;3.70;1.02;;;;;;;11.80;100.00;100439.72;20574428;28;20055;-76
2022/10/24 23:33:29;;;;;;;2.95;1.00;;;;;;;11.68;100.00;100442.56;20573677;28;20050;-75
2022/10/24 23:43:30;;;;;;;2.50;1.60;;;;;;;11.69;100.00;100440.81;20536994;28;20148;-75
2022/10/24 23:53:32;;;;;;;3.83;1.00;;;;;;;11.73;100.00;100431.97;20507622;29;20058;-77
